<?xml version="1.0" encoding="UTF-8" standalone="no" ?>
<gpx xmlns="http://www.topografix.com/GPX/1/1" xmlns:xsi="http://www.w3.org/2001/XMLSchema-instance" xsi:schemaLocation="http://www.topografix.com/GPX/1/1 http://www.topografix.com/GPX/1/1/gpx.xsd" version="1.1" creator="VisuGPX - https://www.visugpx.com">
  <metadata>
    <name>Suède</name>
  </metadata>
  <trk>
    <name><![CDATA[Tour d'Europe: étape 085]]></name>
    <trkseg>
      <trkpt lat="67.1275" lon="20.67453">
        <ele>385.679344</ele>
        <time>2020-09-21T07:48:02.019Z</time>
      </trkpt>
      <trkpt lat="67.12944" lon="20.67147">
        <ele>391.112876</ele>
        <time>2020-09-21T07:56:44.023Z</time>
      </trkpt>
      <trkpt lat="67.12757" lon="20.66958">
        <ele>386.709685</ele>
        <time>2020-09-21T07:57:44.026Z</time>
      </trkpt>
      <trkpt lat="67.12619" lon="20.67379">
        <ele>382.748381</ele>
        <time>2020-09-21T07:58:32.023Z</time>
      </trkpt>
      <trkpt lat="67.12543" lon="20.67859">
        <ele>383.546365</ele>
        <time>2020-09-21T07:59:12.025Z</time>
      </trkpt>
      <trkpt lat="67.12466" lon="20.6839">
        <ele>385.324297</ele>
        <time>2020-09-21T08:00:02.030Z</time>
      </trkpt>
      <trkpt lat="67.12355" lon="20.68847">
        <ele>391.922249</ele>
        <time>2020-09-21T08:00:50.046Z</time>
      </trkpt>
      <trkpt lat="67.12215" lon="20.69209">
        <ele>395.975636</ele>
        <time>2020-09-21T08:01:34.011Z</time>
      </trkpt>
      <trkpt lat="67.12052" lon="20.69587">
        <ele>396.793624</ele>
        <time>2020-09-21T08:02:29.032Z</time>
      </trkpt>
      <trkpt lat="67.11886" lon="20.69922">
        <ele>400.527623</ele>
        <time>2020-09-21T08:03:29.022Z</time>
      </trkpt>
      <trkpt lat="67.11703" lon="20.70179">
        <ele>401.410435</ele>
        <time>2020-09-21T08:04:29.030Z</time>
      </trkpt>
      <trkpt lat="67.11464" lon="20.70386">
        <ele>398.322045</ele>
        <time>2020-09-21T08:05:29.057Z</time>
      </trkpt>
      <trkpt lat="67.11225" lon="20.70503">
        <ele>403.207997</ele>
        <time>2020-09-21T08:06:29.019Z</time>
      </trkpt>
      <trkpt lat="67.10998" lon="20.70607">
        <ele>401.094246</ele>
        <time>2020-09-21T08:07:23.030Z</time>
      </trkpt>
      <trkpt lat="67.10783" lon="20.70762">
        <ele>392.749646</ele>
        <time>2020-09-21T08:08:15.025Z</time>
      </trkpt>
      <trkpt lat="67.10605" lon="20.70992">
        <ele>390.802383</ele>
        <time>2020-09-21T08:08:59.027Z</time>
      </trkpt>
      <trkpt lat="67.10415" lon="20.71376">
        <ele>391.618563</ele>
        <time>2020-09-21T08:09:58.041Z</time>
      </trkpt>
      <trkpt lat="67.10237" lon="20.71771">
        <ele>391.373909</ele>
        <time>2020-09-21T08:10:58.036Z</time>
      </trkpt>
      <trkpt lat="67.10052" lon="20.72186">
        <ele>389.383556</ele>
        <time>2020-09-21T08:11:56.038Z</time>
      </trkpt>
      <trkpt lat="67.09899" lon="20.72605">
        <ele>386.910692</ele>
        <time>2020-09-21T08:12:36.036Z</time>
      </trkpt>
      <trkpt lat="67.09769" lon="20.73069">
        <ele>383.978096</ele>
        <time>2020-09-21T08:13:16.028Z</time>
      </trkpt>
      <trkpt lat="67.09632" lon="20.73566">
        <ele>381.557477</ele>
        <time>2020-09-21T08:13:56.037Z</time>
      </trkpt>
      <trkpt lat="67.09474" lon="20.73998">
        <ele>379.288895</ele>
        <time>2020-09-21T08:14:36.043Z</time>
      </trkpt>
      <trkpt lat="67.09285" lon="20.74335">
        <ele>374.369772</ele>
        <time>2020-09-21T08:15:16.047Z</time>
      </trkpt>
      <trkpt lat="67.09091" lon="20.7455">
        <ele>369.953489</ele>
        <time>2020-09-21T08:15:56.030Z</time>
      </trkpt>
      <trkpt lat="67.08886" lon="20.74681">
        <ele>370.402169</ele>
        <time>2020-09-21T08:16:37.048Z</time>
      </trkpt>
      <trkpt lat="67.08679" lon="20.74802">
        <ele>374.415199</ele>
        <time>2020-09-21T08:17:32.057Z</time>
      </trkpt>
      <trkpt lat="67.08474" lon="20.74975">
        <ele>375.927372</ele>
        <time>2020-09-21T08:18:32.045Z</time>
      </trkpt>
      <trkpt lat="67.08263" lon="20.75172">
        <ele>376.588136</ele>
        <time>2020-09-21T08:19:27.025Z</time>
      </trkpt>
      <trkpt lat="67.08046" lon="20.75309">
        <ele>373.926805</ele>
        <time>2020-09-21T08:20:26.058Z</time>
      </trkpt>
      <trkpt lat="67.07833" lon="20.75372">
        <ele>376.361377</ele>
        <time>2020-09-21T08:21:26.025Z</time>
      </trkpt>
      <trkpt lat="67.07625" lon="20.75372">
        <ele>383.558611</ele>
        <time>2020-09-21T08:22:42.057Z</time>
      </trkpt>
      <trkpt lat="67.07424" lon="20.75308">
        <ele>390.354774</ele>
        <time>2020-09-21T08:24:02.037Z</time>
      </trkpt>
      <trkpt lat="67.07232" lon="20.75203">
        <ele>389.662245</ele>
        <time>2020-09-21T08:25:08.053Z</time>
      </trkpt>
      <trkpt lat="67.07023" lon="20.75009">
        <ele>384.287624</ele>
        <time>2020-09-21T08:26:08.035Z</time>
      </trkpt>
      <trkpt lat="67.06834" lon="20.74807">
        <ele>386.216166</ele>
        <time>2020-09-21T08:27:12.023Z</time>
      </trkpt>
      <trkpt lat="67.06641" lon="20.74597">
        <ele>391.789103</ele>
        <time>2020-09-21T08:28:29.073Z</time>
      </trkpt>
      <trkpt lat="67.06456" lon="20.74398">
        <ele>398.245182</ele>
        <time>2020-09-21T08:29:55.033Z</time>
      </trkpt>
      <trkpt lat="67.06304" lon="20.74077">
        <ele>398.678643</ele>
        <time>2020-09-21T08:31:18.037Z</time>
      </trkpt>
      <trkpt lat="67.06145" lon="20.73793">
        <ele>402.50661</ele>
        <time>2020-09-21T08:32:38.076Z</time>
      </trkpt>
      <trkpt lat="67.05946" lon="20.73703">
        <ele>412.095942</ele>
        <time>2020-09-21T08:34:11.034Z</time>
      </trkpt>
      <trkpt lat="67.05754" lon="20.73572">
        <ele>421.572286</ele>
        <time>2020-09-21T08:35:40.088Z</time>
      </trkpt>
      <trkpt lat="67.05551" lon="20.73554">
        <ele>422.810186</ele>
        <time>2020-09-21T08:36:55.030Z</time>
      </trkpt>
      <trkpt lat="67.05335" lon="20.73666">
        <ele>424.02123</ele>
        <time>2020-09-21T08:38:14.067Z</time>
      </trkpt>
      <trkpt lat="67.05124" lon="20.73806">
        <ele>425.532137</ele>
        <time>2020-09-21T08:39:34.096Z</time>
      </trkpt>
      <trkpt lat="67.04911" lon="20.73878">
        <ele>431.472072</ele>
        <time>2020-09-21T08:40:49.031Z</time>
      </trkpt>
      <trkpt lat="67.04708" lon="20.73873">
        <ele>436.097068</ele>
        <time>2020-09-21T08:42:11.060Z</time>
      </trkpt>
      <trkpt lat="67.04501" lon="20.73797">
        <ele>436.320592</ele>
        <time>2020-09-21T08:43:18.053Z</time>
      </trkpt>
      <trkpt lat="67.04299" lon="20.73662">
        <ele>429.697721</ele>
        <time>2020-09-21T08:44:19.048Z</time>
      </trkpt>
      <trkpt lat="67.04119" lon="20.73475">
        <ele>432.024114</ele>
        <time>2020-09-21T08:45:22.036Z</time>
      </trkpt>
      <trkpt lat="67.03932" lon="20.73232">
        <ele>439.954998</ele>
        <time>2020-09-21T08:46:42.031Z</time>
      </trkpt>
      <trkpt lat="67.0375" lon="20.73008">
        <ele>443.280218</ele>
        <time>2020-09-21T08:48:05.050Z</time>
      </trkpt>
      <trkpt lat="67.03543" lon="20.72781">
        <ele>435.922506</ele>
        <time>2020-09-21T08:48:56.038Z</time>
      </trkpt>
      <trkpt lat="67.03316" lon="20.72678">
        <ele>434.867075</ele>
        <time>2020-09-21T08:49:46.065Z</time>
      </trkpt>
      <trkpt lat="67.03085" lon="20.72713">
        <ele>436.974232</ele>
        <time>2020-09-21T08:50:46.033Z</time>
      </trkpt>
      <trkpt lat="67.02852" lon="20.72893">
        <ele>436.348446</ele>
        <time>2020-09-21T08:51:43.082Z</time>
      </trkpt>
      <trkpt lat="67.02665" lon="20.73145">
        <ele>440.719824</ele>
        <time>2020-09-21T08:52:50.066Z</time>
      </trkpt>
      <trkpt lat="67.02469" lon="20.7334">
        <ele>436.89505</ele>
        <time>2020-09-21T08:53:42.032Z</time>
      </trkpt>
      <trkpt lat="67.02266" lon="20.73503">
        <ele>435.361332</ele>
        <time>2020-09-21T08:54:27.046Z</time>
      </trkpt>
      <trkpt lat="67.02044" lon="20.73654">
        <ele>433.558299</ele>
        <time>2020-09-21T08:55:19.041Z</time>
      </trkpt>
      <trkpt lat="67.01842" lon="20.73673">
        <ele>431.678922</ele>
        <time>2020-09-21T08:56:02.046Z</time>
      </trkpt>
      <trkpt lat="67.01629" lon="20.7356">
        <ele>434.203928</ele>
        <time>2020-09-21T08:56:59.068Z</time>
      </trkpt>
      <trkpt lat="67.01404" lon="20.73474">
        <ele>432.326203</ele>
        <time>2020-09-21T08:57:59.049Z</time>
      </trkpt>
      <trkpt lat="67.01209" lon="20.73498">
        <ele>433.138101</ele>
        <time>2020-09-21T08:58:59.075Z</time>
      </trkpt>
      <trkpt lat="67.00997" lon="20.73569">
        <ele>436.719779</ele>
        <time>2020-09-21T09:00:12.069Z</time>
      </trkpt>
      <trkpt lat="67.00789" lon="20.73553">
        <ele>444.042683</ele>
        <time>2020-09-21T09:01:19.048Z</time>
      </trkpt>
      <trkpt lat="67.00593" lon="20.73513">
        <ele>456.135444</ele>
        <time>2020-09-21T09:02:58.054Z</time>
      </trkpt>
      <trkpt lat="67.00395" lon="20.73554">
        <ele>466.288966</ele>
        <time>2020-09-21T09:04:47.069Z</time>
      </trkpt>
      <trkpt lat="67.00196" lon="20.73689">
        <ele>470.700003</ele>
        <time>2020-09-21T09:06:25.052Z</time>
      </trkpt>
      <trkpt lat="67.00006" lon="20.73893">
        <ele>467.838919</ele>
        <time>2020-09-21T09:07:20.052Z</time>
      </trkpt>
      <trkpt lat="66.99813" lon="20.7406">
        <ele>463.639284</ele>
        <time>2020-09-21T09:08:02.065Z</time>
      </trkpt>
      <trkpt lat="66.99581" lon="20.74154">
        <ele>464.732669</ele>
        <time>2020-09-21T09:08:57.046Z</time>
      </trkpt>
      <trkpt lat="66.99356" lon="20.74158">
        <ele>470.147926</ele>
        <time>2020-09-21T09:09:57.071Z</time>
      </trkpt>
      <trkpt lat="66.99132" lon="20.74157">
        <ele>470.455479</ele>
        <time>2020-09-21T09:10:55.047Z</time>
      </trkpt>
      <trkpt lat="66.98913" lon="20.74152">
        <ele>468.465465</ele>
        <time>2020-09-21T09:11:43.077Z</time>
      </trkpt>
      <trkpt lat="66.98712" lon="20.74149">
        <ele>467.432955</ele>
        <time>2020-09-21T09:12:25.075Z</time>
      </trkpt>
      <trkpt lat="66.98493" lon="20.74161">
        <ele>465.245618</ele>
        <time>2020-09-21T09:13:15.042Z</time>
      </trkpt>
      <trkpt lat="66.98264" lon="20.74199">
        <ele>463.390421</ele>
        <time>2020-09-21T09:14:05.044Z</time>
      </trkpt>
      <trkpt lat="66.98046" lon="20.74269">
        <ele>458.773922</ele>
        <time>2020-09-21T09:14:48.050Z</time>
      </trkpt>
      <trkpt lat="66.9783" lon="20.74359">
        <ele>455.29297</ele>
        <time>2020-09-21T09:15:32.065Z</time>
      </trkpt>
      <trkpt lat="66.97628" lon="20.74447">
        <ele>455.974792</ele>
        <time>2020-09-21T09:16:15.051Z</time>
      </trkpt>
      <trkpt lat="66.97403" lon="20.74545">
        <ele>457.719357</ele>
        <time>2020-09-21T09:17:07.042Z</time>
      </trkpt>
      <trkpt lat="66.97199" lon="20.7468">
        <ele>453.407135</ele>
        <time>2020-09-21T09:17:54.048Z</time>
      </trkpt>
      <trkpt lat="66.96994" lon="20.74956">
        <ele>452.753193</ele>
        <time>2020-09-21T09:18:50.043Z</time>
      </trkpt>
      <trkpt lat="66.96824" lon="20.75336">
        <ele>450.912184</ele>
        <time>2020-09-21T09:19:41.095Z</time>
      </trkpt>
      <trkpt lat="66.96672" lon="20.75743">
        <ele>452.417984</ele>
        <time>2020-09-21T09:20:34.100Z</time>
      </trkpt>
      <trkpt lat="66.96559" lon="20.76201">
        <ele>454.526336</ele>
        <time>2020-09-21T09:21:35.061Z</time>
      </trkpt>
      <trkpt lat="66.96439" lon="20.76705">
        <ele>453.79742</ele>
        <time>2020-09-21T09:22:34.051Z</time>
      </trkpt>
      <trkpt lat="66.9631" lon="20.77199">
        <ele>451.442253</ele>
        <time>2020-09-21T09:23:16.050Z</time>
      </trkpt>
      <trkpt lat="66.96142" lon="20.7765">
        <ele>446.405226</ele>
        <time>2020-09-21T09:23:56.068Z</time>
      </trkpt>
      <trkpt lat="66.95986" lon="20.78046">
        <ele>444.87564</ele>
        <time>2020-09-21T09:24:36.046Z</time>
      </trkpt>
      <trkpt lat="66.95836" lon="20.78469">
        <ele>442.866934</ele>
        <time>2020-09-21T09:25:16.057Z</time>
      </trkpt>
      <trkpt lat="66.95656" lon="20.78784">
        <ele>443.336135</ele>
        <time>2020-09-21T09:26:06.045Z</time>
      </trkpt>
      <trkpt lat="66.95449" lon="20.79023">
        <ele>443.098245</ele>
        <time>2020-09-21T09:27:05.072Z</time>
      </trkpt>
      <trkpt lat="66.95267" lon="20.79284">
        <ele>441.150062</ele>
        <time>2020-09-21T09:27:51.045Z</time>
      </trkpt>
      <trkpt lat="66.95079" lon="20.79546">
        <ele>435.336057</ele>
        <time>2020-09-21T09:28:32.049Z</time>
      </trkpt>
      <trkpt lat="66.9487" lon="20.79842">
        <ele>432.497858</ele>
        <time>2020-09-21T09:29:12.083Z</time>
      </trkpt>
      <trkpt lat="66.9468" lon="20.80118">
        <ele>431.416598</ele>
        <time>2020-09-21T09:29:52.053Z</time>
      </trkpt>
      <trkpt lat="66.94501" lon="20.80488">
        <ele>433.543667</ele>
        <time>2020-09-21T09:30:32.062Z</time>
      </trkpt>
      <trkpt lat="66.9435" lon="20.80879">
        <ele>437.232308</ele>
        <time>2020-09-21T09:31:30.077Z</time>
      </trkpt>
      <trkpt lat="66.94201" lon="20.81272">
        <ele>437.946138</ele>
        <time>2020-09-21T09:32:21.094Z</time>
      </trkpt>
      <trkpt lat="66.94074" lon="20.81682">
        <ele>437.059796</ele>
        <time>2020-09-21T09:33:02.046Z</time>
      </trkpt>
      <trkpt lat="66.93978" lon="20.82178">
        <ele>433.613714</ele>
        <time>2020-09-21T09:33:45.044Z</time>
      </trkpt>
      <trkpt lat="66.93881" lon="20.82722">
        <ele>435.06606</ele>
        <time>2020-09-21T09:34:43.104Z</time>
      </trkpt>
      <trkpt lat="66.93815" lon="20.83231">
        <ele>439.516617</ele>
        <time>2020-09-21T09:35:44.071Z</time>
      </trkpt>
      <trkpt lat="66.93753" lon="20.83745">
        <ele>439.539978</ele>
        <time>2020-09-21T09:36:34.062Z</time>
      </trkpt>
      <trkpt lat="66.93693" lon="20.84237">
        <ele>441.432163</ele>
        <time>2020-09-21T09:37:59.062Z</time>
      </trkpt>
      <trkpt lat="66.93658" lon="20.84813">
        <ele>438.972653</ele>
        <time>2020-09-21T09:38:43.072Z</time>
      </trkpt>
      <trkpt lat="66.93641" lon="20.85364">
        <ele>439.848251</ele>
        <time>2020-09-21T09:39:23.074Z</time>
      </trkpt>
      <trkpt lat="66.93561" lon="20.859">
        <ele>439.470761</ele>
        <time>2020-09-21T09:40:03.095Z</time>
      </trkpt>
      <trkpt lat="66.93413" lon="20.86351">
        <ele>434.992993</ele>
        <time>2020-09-21T09:40:43.070Z</time>
      </trkpt>
      <trkpt lat="66.93267" lon="20.86749">
        <ele>434.086356</ele>
        <time>2020-09-21T09:41:23.098Z</time>
      </trkpt>
      <trkpt lat="66.93104" lon="20.87069">
        <ele>435.222767</ele>
        <time>2020-09-21T09:42:14.052Z</time>
      </trkpt>
      <trkpt lat="66.92923" lon="20.87358">
        <ele>437.995625</ele>
        <time>2020-09-21T09:43:14.100Z</time>
      </trkpt>
      <trkpt lat="66.92789" lon="20.87698">
        <ele>436.292935</ele>
        <time>2020-09-21T09:43:54.055Z</time>
      </trkpt>
      <trkpt lat="66.92627" lon="20.88102">
        <ele>433.537499</ele>
        <time>2020-09-21T09:44:34.087Z</time>
      </trkpt>
      <trkpt lat="66.92389" lon="20.88233">
        <ele>434.288108</ele>
        <time>2020-09-21T09:45:33.073Z</time>
      </trkpt>
      <trkpt lat="66.9218" lon="20.88161">
        <ele>433.106311</ele>
        <time>2020-09-21T09:46:23.049Z</time>
      </trkpt>
      <trkpt lat="66.91967" lon="20.88092">
        <ele>430.376423</ele>
        <time>2020-09-21T09:47:11.055Z</time>
      </trkpt>
      <trkpt lat="66.91749" lon="20.88099">
        <ele>423.88271</ele>
        <time>2020-09-21T09:47:52.084Z</time>
      </trkpt>
      <trkpt lat="66.91543" lon="20.88095">
        <ele>421.163559</ele>
        <time>2020-09-21T09:48:32.083Z</time>
      </trkpt>
      <trkpt lat="66.91352" lon="20.88067">
        <ele>421.107802</ele>
        <time>2020-09-21T09:49:12.053Z</time>
      </trkpt>
      <trkpt lat="66.91153" lon="20.88112">
        <ele>419.176268</ele>
        <time>2020-09-21T09:49:52.058Z</time>
      </trkpt>
      <trkpt lat="66.9095" lon="20.88301">
        <ele>416.589129</ele>
        <time>2020-09-21T09:50:32.059Z</time>
      </trkpt>
      <trkpt lat="66.90777" lon="20.88599">
        <ele>414.109043</ele>
        <time>2020-09-21T09:51:12.063Z</time>
      </trkpt>
      <trkpt lat="66.90608" lon="20.88933">
        <ele>413.24162</ele>
        <time>2020-09-21T09:52:00.065Z</time>
      </trkpt>
      <trkpt lat="66.90435" lon="20.89273">
        <ele>419.951448</ele>
        <time>2020-09-21T10:05:38.112Z</time>
      </trkpt>
      <trkpt lat="66.90233" lon="20.89507">
        <ele>418.83975</ele>
        <time>2020-09-21T10:06:40.068Z</time>
      </trkpt>
      <trkpt lat="66.90033" lon="20.89715">
        <ele>417.642223</ele>
        <time>2020-09-21T10:07:40.054Z</time>
      </trkpt>
      <trkpt lat="66.89871" lon="20.90054">
        <ele>417.302057</ele>
        <time>2020-09-21T10:08:40.065Z</time>
      </trkpt>
      <trkpt lat="66.89747" lon="20.90536">
        <ele>412.883435</ele>
        <time>2020-09-21T10:09:33.093Z</time>
      </trkpt>
      <trkpt lat="66.89656" lon="20.91099">
        <ele>413.485037</ele>
        <time>2020-09-21T10:10:13.065Z</time>
      </trkpt>
      <trkpt lat="66.89539" lon="20.91537">
        <ele>413.136103</ele>
        <time>2020-09-21T10:10:53.055Z</time>
      </trkpt>
      <trkpt lat="66.8942" lon="20.91931">
        <ele>413.891991</ele>
        <time>2020-09-21T10:11:33.096Z</time>
      </trkpt>
      <trkpt lat="66.89265" lon="20.92305">
        <ele>413.491772</ele>
        <time>2020-09-21T10:12:13.101Z</time>
      </trkpt>
      <trkpt lat="66.89093" lon="20.92715">
        <ele>409.587291</ele>
        <time>2020-09-21T10:12:53.077Z</time>
      </trkpt>
      <trkpt lat="66.88924" lon="20.9311">
        <ele>408.916511</ele>
        <time>2020-09-21T10:13:33.075Z</time>
      </trkpt>
      <trkpt lat="66.8875" lon="20.93388">
        <ele>408.757375</ele>
        <time>2020-09-21T10:14:16.067Z</time>
      </trkpt>
      <trkpt lat="66.88557" lon="20.9357">
        <ele>405.509971</ele>
        <time>2020-09-21T10:14:57.084Z</time>
      </trkpt>
      <trkpt lat="66.88352" lon="20.93883">
        <ele>402.821517</ele>
        <time>2020-09-21T10:15:37.094Z</time>
      </trkpt>
      <trkpt lat="66.88193" lon="20.9426">
        <ele>400.9015</ele>
        <time>2020-09-21T10:16:17.056Z</time>
      </trkpt>
      <trkpt lat="66.88033" lon="20.94642">
        <ele>396.884955</ele>
        <time>2020-09-21T10:16:57.093Z</time>
      </trkpt>
      <trkpt lat="66.87868" lon="20.95084">
        <ele>393.171072</ele>
        <time>2020-09-21T10:17:37.070Z</time>
      </trkpt>
      <trkpt lat="66.87742" lon="20.95534">
        <ele>397.430925</ele>
        <time>2020-09-21T10:18:20.060Z</time>
      </trkpt>
      <trkpt lat="66.87628" lon="20.95971">
        <ele>396.341624</ele>
        <time>2020-09-21T10:19:00.056Z</time>
      </trkpt>
      <trkpt lat="66.87495" lon="20.96352">
        <ele>395.781353</ele>
        <time>2020-09-21T10:19:44.088Z</time>
      </trkpt>
      <trkpt lat="66.87327" lon="20.96674">
        <ele>396.140714</ele>
        <time>2020-09-21T10:20:25.063Z</time>
      </trkpt>
      <trkpt lat="66.87157" lon="20.97011">
        <ele>395.103063</ele>
        <time>2020-09-21T10:21:05.094Z</time>
      </trkpt>
      <trkpt lat="66.86983" lon="20.97474">
        <ele>392.30476</ele>
        <time>2020-09-21T10:21:45.073Z</time>
      </trkpt>
      <trkpt lat="66.86826" lon="20.97897">
        <ele>388.787547</ele>
        <time>2020-09-21T10:22:25.086Z</time>
      </trkpt>
      <trkpt lat="66.86663" lon="20.9833">
        <ele>385.086779</ele>
        <time>2020-09-21T10:23:05.086Z</time>
      </trkpt>
      <trkpt lat="66.86502" lon="20.98759">
        <ele>384.245907</ele>
        <time>2020-09-21T10:23:45.060Z</time>
      </trkpt>
      <trkpt lat="66.8633" lon="20.99128">
        <ele>384.25493</ele>
        <time>2020-09-21T10:24:27.108Z</time>
      </trkpt>
      <trkpt lat="66.86137" lon="20.99353">
        <ele>383.780577</ele>
        <time>2020-09-21T10:25:07.065Z</time>
      </trkpt>
      <trkpt lat="66.85935" lon="20.99464">
        <ele>383.102305</ele>
        <time>2020-09-21T10:25:47.083Z</time>
      </trkpt>
      <trkpt lat="66.85697" lon="20.99694">
        <ele>378.616402</ele>
        <time>2020-09-21T10:26:27.054Z</time>
      </trkpt>
      <trkpt lat="66.85504" lon="20.99939">
        <ele>378.275439</ele>
        <time>2020-09-21T10:27:07.114Z</time>
      </trkpt>
      <trkpt lat="66.85313" lon="21.00142">
        <ele>385.422901</ele>
        <time>2020-09-21T10:28:03.081Z</time>
      </trkpt>
      <trkpt lat="66.85133" lon="21.00331">
        <ele>400.08529</ele>
        <time>2020-09-21T10:29:55.069Z</time>
      </trkpt>
      <trkpt lat="66.84951" lon="21.00519">
        <ele>409.859544</ele>
        <time>2020-09-21T10:31:36.066Z</time>
      </trkpt>
      <trkpt lat="66.8476" lon="21.00716">
        <ele>410.629991</ele>
        <time>2020-09-21T10:32:55.064Z</time>
      </trkpt>
      <trkpt lat="66.84557" lon="21.01029">
        <ele>398.124661</ele>
        <time>2020-09-21T10:33:39.075Z</time>
      </trkpt>
      <trkpt lat="66.84396" lon="21.01451">
        <ele>387.312344</ele>
        <time>2020-09-21T10:34:03.125Z</time>
      </trkpt>
      <trkpt lat="66.84258" lon="21.02057">
        <ele>380.964685</ele>
        <time>2020-09-21T10:34:43.092Z</time>
      </trkpt>
      <trkpt lat="66.8412" lon="21.02529">
        <ele>380.289921</ele>
        <time>2020-09-21T10:35:23.076Z</time>
      </trkpt>
      <trkpt lat="66.84042" lon="21.03058">
        <ele>379.722413</ele>
        <time>2020-09-21T10:36:03.064Z</time>
      </trkpt>
      <trkpt lat="66.83939" lon="21.036">
        <ele>380.204501</ele>
        <time>2020-09-21T10:36:43.068Z</time>
      </trkpt>
      <trkpt lat="66.83773" lon="21.03963">
        <ele>384.462235</ele>
        <time>2020-09-21T10:37:39.074Z</time>
      </trkpt>
      <trkpt lat="66.83563" lon="21.04166">
        <ele>384.982844</ele>
        <time>2020-09-21T10:38:32.071Z</time>
      </trkpt>
      <trkpt lat="66.83343" lon="21.03991">
        <ele>382.907756</ele>
        <time>2020-09-21T10:39:26.087Z</time>
      </trkpt>
      <trkpt lat="66.83117" lon="21.03829">
        <ele>380.381178</ele>
        <time>2020-09-21T10:40:22.093Z</time>
      </trkpt>
      <trkpt lat="66.82895" lon="21.03974">
        <ele>381.195845</ele>
        <time>2020-09-21T10:41:15.085Z</time>
      </trkpt>
      <trkpt lat="66.82663" lon="21.03967">
        <ele>382.913369</ele>
        <time>2020-09-21T10:42:09.072Z</time>
      </trkpt>
      <trkpt lat="66.82462" lon="21.04123">
        <ele>381.880944</ele>
        <time>2020-09-21T10:42:55.068Z</time>
      </trkpt>
      <trkpt lat="66.82244" lon="21.04256">
        <ele>378.650407</ele>
        <time>2020-09-21T10:43:44.116Z</time>
      </trkpt>
      <trkpt lat="66.82019" lon="21.04297">
        <ele>379.596291</ele>
        <time>2020-09-21T10:44:38.085Z</time>
      </trkpt>
      <trkpt lat="66.81791" lon="21.0431">
        <ele>379.243863</ele>
        <time>2020-09-21T10:45:38.072Z</time>
      </trkpt>
      <trkpt lat="66.81572" lon="21.04231">
        <ele>382.248271</ele>
        <time>2020-09-21T10:46:38.066Z</time>
      </trkpt>
      <trkpt lat="66.81339" lon="21.04385">
        <ele>382.898852</ele>
        <time>2020-09-21T10:47:34.081Z</time>
      </trkpt>
      <trkpt lat="66.81101" lon="21.0441">
        <ele>382.609654</ele>
        <time>2020-09-21T10:48:34.063Z</time>
      </trkpt>
      <trkpt lat="66.80882" lon="21.04231">
        <ele>379.387343</ele>
        <time>2020-09-21T10:49:27.079Z</time>
      </trkpt>
      <trkpt lat="66.80675" lon="21.03964">
        <ele>376.048356</ele>
        <time>2020-09-21T10:50:21.064Z</time>
      </trkpt>
      <trkpt lat="66.80446" lon="21.03779">
        <ele>375.527511</ele>
        <time>2020-09-21T10:51:19.102Z</time>
      </trkpt>
      <trkpt lat="66.80218" lon="21.03846">
        <ele>376.679315</ele>
        <time>2020-09-21T10:52:12.066Z</time>
      </trkpt>
      <trkpt lat="66.79995" lon="21.03901">
        <ele>376.523604</ele>
        <time>2020-09-21T10:53:03.065Z</time>
      </trkpt>
      <trkpt lat="66.7976" lon="21.03881">
        <ele>377.104866</ele>
        <time>2020-09-21T10:54:03.092Z</time>
      </trkpt>
      <trkpt lat="66.79529" lon="21.03858">
        <ele>373.758902</ele>
        <time>2020-09-21T10:55:03.089Z</time>
      </trkpt>
      <trkpt lat="66.79317" lon="21.03835">
        <ele>375.109996</ele>
        <time>2020-09-21T10:56:03.086Z</time>
      </trkpt>
      <trkpt lat="66.79102" lon="21.03819">
        <ele>374.977566</ele>
        <time>2020-09-21T10:57:03.106Z</time>
      </trkpt>
      <trkpt lat="66.78876" lon="21.03906">
        <ele>375.078487</ele>
        <time>2020-09-21T10:58:03.064Z</time>
      </trkpt>
      <trkpt lat="66.78648" lon="21.04074">
        <ele>374.303333</ele>
        <time>2020-09-21T10:58:58.077Z</time>
      </trkpt>
      <trkpt lat="66.78426" lon="21.04233">
        <ele>375.258369</ele>
        <time>2020-09-21T10:59:57.088Z</time>
      </trkpt>
      <trkpt lat="66.78208" lon="21.04407">
        <ele>376.377316</ele>
        <time>2020-09-21T11:00:55.072Z</time>
      </trkpt>
      <trkpt lat="66.78007" lon="21.04715">
        <ele>377.464951</ele>
        <time>2020-09-21T11:01:55.068Z</time>
      </trkpt>
      <trkpt lat="66.77815" lon="21.05018">
        <ele>377.931127</ele>
        <time>2020-09-21T11:02:55.105Z</time>
      </trkpt>
      <trkpt lat="66.77611" lon="21.0521">
        <ele>380.065565</ele>
        <time>2020-09-21T11:03:55.069Z</time>
      </trkpt>
      <trkpt lat="66.77415" lon="21.05267">
        <ele>387.14822</ele>
        <time>2020-09-21T11:05:13.077Z</time>
      </trkpt>
      <trkpt lat="66.7722" lon="21.05208">
        <ele>397.030252</ele>
        <time>2020-09-21T11:06:41.076Z</time>
      </trkpt>
      <trkpt lat="66.77034" lon="21.05">
        <ele>396.282134</ele>
        <time>2020-09-21T11:07:49.064Z</time>
      </trkpt>
      <trkpt lat="66.76864" lon="21.04578">
        <ele>381.066381</ele>
        <time>2020-09-21T11:08:32.092Z</time>
      </trkpt>
      <trkpt lat="66.76746" lon="21.04121">
        <ele>372.220572</ele>
        <time>2020-09-21T11:09:16.067Z</time>
      </trkpt>
      <trkpt lat="66.76637" lon="21.037">
        <ele>367.102114</ele>
        <time>2020-09-21T11:09:56.082Z</time>
      </trkpt>
      <trkpt lat="66.7651" lon="21.03315">
        <ele>365.650643</ele>
        <time>2020-09-21T11:10:36.110Z</time>
      </trkpt>
      <trkpt lat="66.76376" lon="21.0296">
        <ele>367.089211</ele>
        <time>2020-09-21T11:11:17.077Z</time>
      </trkpt>
      <trkpt lat="66.7621" lon="21.02607">
        <ele>368.326359</ele>
        <time>2020-09-21T11:12:09.094Z</time>
      </trkpt>
      <trkpt lat="66.76038" lon="21.02148">
        <ele>359.45256</ele>
        <time>2020-09-21T11:12:50.082Z</time>
      </trkpt>
      <trkpt lat="66.75902" lon="21.01783">
        <ele>357.269546</ele>
        <time>2020-09-21T11:13:33.090Z</time>
      </trkpt>
      <trkpt lat="66.75734" lon="21.01415">
        <ele>360.290028</ele>
        <time>2020-09-21T11:14:24.104Z</time>
      </trkpt>
      <trkpt lat="66.75548" lon="21.01008">
        <ele>360.490371</ele>
        <time>2020-09-21T11:15:24.076Z</time>
      </trkpt>
      <trkpt lat="66.75406" lon="21.00642">
        <ele>357.131144</ele>
        <time>2020-09-21T11:16:08.128Z</time>
      </trkpt>
      <trkpt lat="66.75301" lon="21.00149">
        <ele>352.227022</ele>
        <time>2020-09-21T11:17:10.071Z</time>
      </trkpt>
      <trkpt lat="66.75255" lon="20.99652">
        <ele>350.901209</ele>
        <time>2020-09-21T11:18:11.072Z</time>
      </trkpt>
      <trkpt lat="66.75249" lon="20.99071">
        <ele>352.233928</ele>
        <time>2020-09-21T11:19:11.115Z</time>
      </trkpt>
      <trkpt lat="66.75307" lon="20.98558">
        <ele>347.627311</ele>
        <time>2020-09-21T11:20:11.071Z</time>
      </trkpt>
      <trkpt lat="66.75417" lon="20.98033">
        <ele>346.297169</ele>
        <time>2020-09-21T11:21:09.108Z</time>
      </trkpt>
      <trkpt lat="66.75531" lon="20.97497">
        <ele>346.058593</ele>
        <time>2020-09-21T11:22:07.087Z</time>
      </trkpt>
      <trkpt lat="66.75566" lon="20.96954">
        <ele>349.746428</ele>
        <time>2020-09-21T11:23:07.104Z</time>
      </trkpt>
      <trkpt lat="66.75554" lon="20.96409">
        <ele>355.200478</ele>
        <time>2020-09-21T11:24:08.073Z</time>
      </trkpt>
      <trkpt lat="66.75548" lon="20.9586">
        <ele>353.512278</ele>
        <time>2020-09-21T11:24:59.076Z</time>
      </trkpt>
      <trkpt lat="66.75553" lon="20.95451">
        <ele>353.501348</ele>
        <time>2020-09-21T11:25:58.086Z</time>
      </trkpt>
      <trkpt lat="66.75305" lon="20.95459">
        <ele>351.826195</ele>
        <time>2020-09-21T11:26:58.086Z</time>
      </trkpt>
      <trkpt lat="66.75145" lon="20.95278">
        <ele>358.160999</ele>
        <time>2020-09-21T11:28:03.096Z</time>
      </trkpt>
      <trkpt lat="66.75152" lon="20.94757">
        <ele>352.978116</ele>
        <time>2020-09-21T11:29:08.076Z</time>
      </trkpt>
      <trkpt lat="66.75155" lon="20.94227">
        <ele>354.091543</ele>
        <time>2020-09-21T11:30:08.101Z</time>
      </trkpt>
      <trkpt lat="66.75033" lon="20.93853">
        <ele>359.353164</ele>
        <time>2020-09-21T11:31:09.100Z</time>
      </trkpt>
      <trkpt lat="66.74857" lon="20.93605">
        <ele>366.73957</ele>
        <time>2020-09-21T11:32:26.114Z</time>
      </trkpt>
      <trkpt lat="66.74748" lon="20.93146">
        <ele>365.248388</ele>
        <time>2020-09-21T11:33:42.125Z</time>
      </trkpt>
      <trkpt lat="66.74547" lon="20.93179">
        <ele>365.709463</ele>
        <time>2020-09-21T11:34:36.084Z</time>
      </trkpt>
      <trkpt lat="66.74335" lon="20.93139">
        <ele>362.913909</ele>
        <time>2020-09-21T11:35:22.064Z</time>
      </trkpt>
      <trkpt lat="66.74149" lon="20.92928">
        <ele>364.462641</ele>
        <time>2020-09-21T11:36:22.069Z</time>
      </trkpt>
      <trkpt lat="66.73967" lon="20.92689">
        <ele>370.426416</ele>
        <time>2020-09-21T11:37:30.170Z</time>
      </trkpt>
      <trkpt lat="66.73782" lon="20.92451">
        <ele>376.444253</ele>
        <time>2020-09-21T11:38:49.099Z</time>
      </trkpt>
      <trkpt lat="66.73603" lon="20.92217">
        <ele>374.317821</ele>
        <time>2020-09-21T11:39:49.105Z</time>
      </trkpt>
      <trkpt lat="66.73432" lon="20.91993">
        <ele>372.288159</ele>
        <time>2020-09-21T11:40:48.100Z</time>
      </trkpt>
      <trkpt lat="66.73258" lon="20.91699">
        <ele>374.388284</ele>
        <time>2020-09-21T11:42:00.103Z</time>
      </trkpt>
      <trkpt lat="66.73147" lon="20.91291">
        <ele>376.380558</ele>
        <time>2020-09-21T11:43:12.076Z</time>
      </trkpt>
      <trkpt lat="66.73016" lon="20.90903">
        <ele>386.360217</ele>
        <time>2020-09-21T11:44:49.079Z</time>
      </trkpt>
      <trkpt lat="66.72837" lon="20.90622">
        <ele>390.964083</ele>
        <time>2020-09-21T11:46:04.125Z</time>
      </trkpt>
      <trkpt lat="66.72644" lon="20.9032">
        <ele>380.226446</ele>
        <time>2020-09-21T11:46:44.083Z</time>
      </trkpt>
      <trkpt lat="66.72463" lon="20.90042">
        <ele>371.833089</ele>
        <time>2020-09-21T11:47:31.104Z</time>
      </trkpt>
      <trkpt lat="66.72285" lon="20.89767">
        <ele>379.368713</ele>
        <time>2020-09-21T11:48:42.104Z</time>
      </trkpt>
      <trkpt lat="66.72075" lon="20.89554">
        <ele>381.594984</ele>
        <time>2020-09-21T11:49:33.105Z</time>
      </trkpt>
      <trkpt lat="66.71852" lon="20.89524">
        <ele>376.131824</ele>
        <time>2020-09-21T11:50:24.082Z</time>
      </trkpt>
      <trkpt lat="66.7164" lon="20.89538">
        <ele>367.695095</ele>
        <time>2020-09-21T11:51:04.105Z</time>
      </trkpt>
      <trkpt lat="66.71417" lon="20.89549">
        <ele>359.995967</ele>
        <time>2020-09-21T11:51:44.125Z</time>
      </trkpt>
      <trkpt lat="66.71193" lon="20.89533">
        <ele>366.904392</ele>
        <time>2020-09-21T11:52:44.105Z</time>
      </trkpt>
      <trkpt lat="66.70973" lon="20.89431">
        <ele>368.441727</ele>
        <time>2020-09-21T11:53:26.084Z</time>
      </trkpt>
      <trkpt lat="66.70738" lon="20.89292">
        <ele>362.755147</ele>
        <time>2020-09-21T11:54:06.088Z</time>
      </trkpt>
      <trkpt lat="66.7053" lon="20.89219">
        <ele>359.308503</ele>
        <time>2020-09-21T11:54:46.088Z</time>
      </trkpt>
      <trkpt lat="66.70296" lon="20.89187">
        <ele>363.44999</ele>
        <time>2020-09-21T11:55:45.093Z</time>
      </trkpt>
      <trkpt lat="66.70087" lon="20.89156">
        <ele>368.963563</ele>
        <time>2020-09-21T11:56:45.101Z</time>
      </trkpt>
      <trkpt lat="66.69886" lon="20.89086">
        <ele>372.969037</ele>
        <time>2020-09-21T11:57:46.092Z</time>
      </trkpt>
      <trkpt lat="66.6969" lon="20.88926">
        <ele>377.712838</ele>
        <time>2020-09-21T11:58:56.088Z</time>
      </trkpt>
      <trkpt lat="66.69496" lon="20.88766">
        <ele>383.405801</ele>
        <time>2020-09-21T12:00:12.095Z</time>
      </trkpt>
      <trkpt lat="66.69293" lon="20.88682">
        <ele>380.474502</ele>
        <time>2020-09-21T12:01:19.106Z</time>
      </trkpt>
      <trkpt lat="66.69095" lon="20.88837">
        <ele>377.677788</ele>
        <time>2020-09-21T12:02:11.102Z</time>
      </trkpt>
      <trkpt lat="66.68934" lon="20.89129">
        <ele>371.905628</ele>
        <time>2020-09-21T12:02:51.094Z</time>
      </trkpt>
      <trkpt lat="66.68771" lon="20.89427">
        <ele>363.718456</ele>
        <time>2020-09-21T12:03:33.083Z</time>
      </trkpt>
      <trkpt lat="66.68589" lon="20.89757">
        <ele>360.813278</ele>
        <time>2020-09-21T12:22:44.093Z</time>
      </trkpt>
      <trkpt lat="66.68392" lon="20.90125">
        <ele>361.890954</ele>
        <time>2020-09-21T12:23:43.091Z</time>
      </trkpt>
      <trkpt lat="66.6822" lon="20.9044">
        <ele>370.073165</ele>
        <time>2020-09-21T12:24:53.099Z</time>
      </trkpt>
      <trkpt lat="66.68049" lon="20.90758">
        <ele>372.415741</ele>
        <time>2020-09-21T12:25:58.109Z</time>
      </trkpt>
      <trkpt lat="66.67865" lon="20.91132">
        <ele>365.88144</ele>
        <time>2020-09-21T12:26:41.100Z</time>
      </trkpt>
      <trkpt lat="66.67716" lon="20.91488">
        <ele>363.833875</ele>
        <time>2020-09-21T12:27:21.116Z</time>
      </trkpt>
      <trkpt lat="66.67563" lon="20.91844">
        <ele>361.353044</ele>
        <time>2020-09-21T12:28:01.093Z</time>
      </trkpt>
      <trkpt lat="66.67404" lon="20.92217">
        <ele>357.033964</ele>
        <time>2020-09-21T12:28:41.091Z</time>
      </trkpt>
      <trkpt lat="66.67242" lon="20.92598">
        <ele>356.740903</ele>
        <time>2020-09-21T12:29:22.104Z</time>
      </trkpt>
      <trkpt lat="66.67083" lon="20.92969">
        <ele>359.923527</ele>
        <time>2020-09-21T12:30:11.115Z</time>
      </trkpt>
      <trkpt lat="66.66928" lon="20.93338">
        <ele>361.411859</ele>
        <time>2020-09-21T12:31:01.102Z</time>
      </trkpt>
      <trkpt lat="66.66774" lon="20.93701">
        <ele>358.688412</ele>
        <time>2020-09-21T12:31:47.117Z</time>
      </trkpt>
      <trkpt lat="66.66608" lon="20.94105">
        <ele>355.341378</ele>
        <time>2020-09-21T12:32:30.114Z</time>
      </trkpt>
      <trkpt lat="66.66509" lon="20.94577">
        <ele>354.567947</ele>
        <time>2020-09-21T12:33:25.097Z</time>
      </trkpt>
      <trkpt lat="66.66365" lon="20.9502">
        <ele>350.157455</ele>
        <time>2020-09-21T12:34:05.122Z</time>
      </trkpt>
      <trkpt lat="66.66212" lon="20.95367">
        <ele>350.735689</ele>
        <time>2020-09-21T12:34:45.107Z</time>
      </trkpt>
      <trkpt lat="66.6606" lon="20.95689">
        <ele>350.924861</ele>
        <time>2020-09-21T12:35:26.118Z</time>
      </trkpt>
      <trkpt lat="66.65901" lon="20.96031">
        <ele>349.670285</ele>
        <time>2020-09-21T12:36:12.101Z</time>
      </trkpt>
      <trkpt lat="66.65738" lon="20.96378">
        <ele>346.919121</ele>
        <time>2020-09-21T12:36:53.086Z</time>
      </trkpt>
      <trkpt lat="66.65613" lon="20.96821">
        <ele>345.266268</ele>
        <time>2020-09-21T12:37:38.096Z</time>
      </trkpt>
      <trkpt lat="66.65576" lon="20.97394">
        <ele>344.701919</ele>
        <time>2020-09-21T12:38:18.107Z</time>
      </trkpt>
      <trkpt lat="66.65636" lon="20.97961">
        <ele>340.503796</ele>
        <time>2020-09-21T12:38:58.113Z</time>
      </trkpt>
      <trkpt lat="66.65678" lon="20.98506">
        <ele>339.738732</ele>
        <time>2020-09-21T12:39:43.117Z</time>
      </trkpt>
      <trkpt lat="66.65546" lon="20.98916">
        <ele>334.149516</ele>
        <time>2020-09-21T12:40:24.102Z</time>
      </trkpt>
      <trkpt lat="66.65336" lon="20.99022">
        <ele>333.643699</ele>
        <time>2020-09-21T12:41:11.104Z</time>
      </trkpt>
      <trkpt lat="66.6514" lon="20.99106">
        <ele>332.714107</ele>
        <time>2020-09-21T12:41:51.110Z</time>
      </trkpt>
      <trkpt lat="66.64924" lon="20.99196">
        <ele>336.763551</ele>
        <time>2020-09-21T12:42:51.097Z</time>
      </trkpt>
      <trkpt lat="66.64732" lon="20.9941">
        <ele>337.890157</ele>
        <time>2020-09-21T12:43:46.124Z</time>
      </trkpt>
      <trkpt lat="66.64588" lon="20.99805">
        <ele>340.106879</ele>
        <time>2020-09-21T12:47:05.086Z</time>
      </trkpt>
      <trkpt lat="66.64438" lon="21.00223">
        <ele>337.216046</ele>
        <time>2020-09-21T12:47:47.141Z</time>
      </trkpt>
      <trkpt lat="66.64289" lon="21.00647">
        <ele>339.532772</ele>
        <time>2020-09-21T12:48:41.102Z</time>
      </trkpt>
      <trkpt lat="66.64131" lon="21.01081">
        <ele>337.692446</ele>
        <time>2020-09-21T12:49:21.107Z</time>
      </trkpt>
      <trkpt lat="66.63983" lon="21.01449">
        <ele>336.282203</ele>
        <time>2020-09-21T12:50:06.099Z</time>
      </trkpt>
      <trkpt lat="66.638" lon="21.01701">
        <ele>332.897996</ele>
        <time>2020-09-21T12:50:53.104Z</time>
      </trkpt>
      <trkpt lat="66.63584" lon="21.01809">
        <ele>331.563919</ele>
        <time>2020-09-21T12:51:52.103Z</time>
      </trkpt>
      <trkpt lat="66.63376" lon="21.01862">
        <ele>333.467072</ele>
        <time>2020-09-21T12:52:40.096Z</time>
      </trkpt>
      <trkpt lat="66.63159" lon="21.01915">
        <ele>335.75328</ele>
        <time>2020-09-21T12:53:40.103Z</time>
      </trkpt>
      <trkpt lat="66.6294" lon="21.01974">
        <ele>334.380722</ele>
        <time>2020-09-21T12:54:34.107Z</time>
      </trkpt>
      <trkpt lat="66.6271" lon="21.02028">
        <ele>332.836986</ele>
        <time>2020-09-21T12:55:33.095Z</time>
      </trkpt>
      <trkpt lat="66.62462" lon="21.02092">
        <ele>333.405075</ele>
        <time>2020-09-21T12:56:33.123Z</time>
      </trkpt>
      <trkpt lat="66.62233" lon="21.02151">
        <ele>335.682186</ele>
        <time>2020-09-21T12:57:33.112Z</time>
      </trkpt>
      <trkpt lat="66.62023" lon="21.02267">
        <ele>340.835814</ele>
        <time>2020-09-21T12:58:39.095Z</time>
      </trkpt>
      <trkpt lat="66.61845" lon="21.02475">
        <ele>345.546892</ele>
        <time>2020-09-21T12:59:45.124Z</time>
      </trkpt>
      <trkpt lat="66.61679" lon="21.02801">
        <ele>345.123746</ele>
        <time>2020-09-21T13:00:49.092Z</time>
      </trkpt>
      <trkpt lat="66.6153" lon="21.03167">
        <ele>340.324754</ele>
        <time>2020-09-21T13:01:29.120Z</time>
      </trkpt>
      <trkpt lat="66.61379" lon="21.03544">
        <ele>336.025655</ele>
        <time>2020-09-21T13:02:09.142Z</time>
      </trkpt>
      <trkpt lat="66.61214" lon="21.03949">
        <ele>333.997657</ele>
        <time>2020-09-21T13:03:00.161Z</time>
      </trkpt>
      <trkpt lat="66.61058" lon="21.04329">
        <ele>339.551499</ele>
        <time>2020-09-21T13:04:00.116Z</time>
      </trkpt>
      <trkpt lat="66.60906" lon="21.04707">
        <ele>338.688095</ele>
        <time>2020-09-21T13:04:48.110Z</time>
      </trkpt>
      <trkpt lat="66.60757" lon="21.0507">
        <ele>333.276506</ele>
        <time>2020-09-21T13:05:28.117Z</time>
      </trkpt>
      <trkpt lat="66.60618" lon="21.05413">
        <ele>329.673336</ele>
        <time>2020-09-21T13:06:08.125Z</time>
      </trkpt>
      <trkpt lat="66.60455" lon="21.05814">
        <ele>329.741402</ele>
        <time>2020-09-21T13:07:00.112Z</time>
      </trkpt>
      <trkpt lat="66.60293" lon="21.0618">
        <ele>326.909885</ele>
        <time>2020-09-21T13:07:40.096Z</time>
      </trkpt>
      <trkpt lat="66.60106" lon="21.06502">
        <ele>328.537554</ele>
        <time>2020-09-21T13:08:34.122Z</time>
      </trkpt>
      <trkpt lat="66.59924" lon="21.06812">
        <ele>331.313733</ele>
        <time>2020-09-21T13:09:38.150Z</time>
      </trkpt>
      <trkpt lat="66.59751" lon="21.07108">
        <ele>326.718755</ele>
        <time>2020-09-21T13:10:24.100Z</time>
      </trkpt>
      <trkpt lat="66.59564" lon="21.07433">
        <ele>321.814225</ele>
        <time>2020-09-21T13:11:14.134Z</time>
      </trkpt>
      <trkpt lat="66.59401" lon="21.07711">
        <ele>319.131792</ele>
        <time>2020-09-21T13:11:54.108Z</time>
      </trkpt>
      <trkpt lat="66.59197" lon="21.07941">
        <ele>319.227787</ele>
        <time>2020-09-21T13:12:34.122Z</time>
      </trkpt>
      <trkpt lat="66.58972" lon="21.07865">
        <ele>326.389367</ele>
        <time>2020-09-21T13:13:27.112Z</time>
      </trkpt>
      <trkpt lat="66.58772" lon="21.07782">
        <ele>329.200109</ele>
        <time>2020-09-21T13:14:11.108Z</time>
      </trkpt>
      <trkpt lat="66.58555" lon="21.07695">
        <ele>329.926481</ele>
        <time>2020-09-21T13:15:09.098Z</time>
      </trkpt>
      <trkpt lat="66.58347" lon="21.07607">
        <ele>329.293635</ele>
        <time>2020-09-21T13:16:09.098Z</time>
      </trkpt>
      <trkpt lat="66.5813" lon="21.07519">
        <ele>328.47234</ele>
        <time>2020-09-21T13:17:08.112Z</time>
      </trkpt>
      <trkpt lat="66.5791" lon="21.07424">
        <ele>333.463226</ele>
        <time>2020-09-21T13:18:08.102Z</time>
      </trkpt>
      <trkpt lat="66.57686" lon="21.07335">
        <ele>333.597226</ele>
        <time>2020-09-21T13:19:09.120Z</time>
      </trkpt>
      <trkpt lat="66.57468" lon="21.07247">
        <ele>333.207996</ele>
        <time>2020-09-21T13:20:09.110Z</time>
      </trkpt>
      <trkpt lat="66.57238" lon="21.07153">
        <ele>324.913659</ele>
        <time>2020-09-21T13:20:54.129Z</time>
      </trkpt>
      <trkpt lat="66.57216" lon="21.06637">
        <ele>318.990986</ele>
        <time>2020-09-21T13:21:53.122Z</time>
      </trkpt>
      <trkpt lat="66.57228" lon="21.06116">
        <ele>322.00079</ele>
        <time>2020-09-21T13:22:59.129Z</time>
      </trkpt>
      <trkpt lat="66.57235" lon="21.05597">
        <ele>326.717103</ele>
        <time>2020-09-21T13:24:05.113Z</time>
      </trkpt>
      <trkpt lat="66.57246" lon="21.05088">
        <ele>329.292034</ele>
        <time>2020-09-21T13:25:08.108Z</time>
      </trkpt>
      <trkpt lat="66.57142" lon="21.04584">
        <ele>320.302844</ele>
        <time>2020-09-21T13:25:48.138Z</time>
      </trkpt>
      <trkpt lat="66.57079" lon="21.04063">
        <ele>319.858169</ele>
        <time>2020-09-21T13:26:36.122Z</time>
      </trkpt>
      <trkpt lat="66.57071" lon="21.03542">
        <ele>324.243853</ele>
        <time>2020-09-21T13:27:36.100Z</time>
      </trkpt>
      <trkpt lat="66.57077" lon="21.03031">
        <ele>327.379813</ele>
        <time>2020-09-21T13:28:42.122Z</time>
      </trkpt>
      <trkpt lat="66.5709" lon="21.02498">
        <ele>332.996572</ele>
        <time>2020-09-21T13:30:02.116Z</time>
      </trkpt>
      <trkpt lat="66.57054" lon="21.01989">
        <ele>335.689271</ele>
        <time>2020-09-21T13:31:20.106Z</time>
      </trkpt>
      <trkpt lat="66.5686" lon="21.01849">
        <ele>336.056172</ele>
        <time>2020-09-21T13:32:35.114Z</time>
      </trkpt>
      <trkpt lat="66.56652" lon="21.01766">
        <ele>334.341794</ele>
        <time>2020-09-21T13:33:25.148Z</time>
      </trkpt>
      <trkpt lat="66.56478" lon="21.01469">
        <ele>335.503994</ele>
        <time>2020-09-21T13:34:33.192Z</time>
      </trkpt>
      <trkpt lat="66.56298" lon="21.01165">
        <ele>328.784909</ele>
        <time>2020-09-21T13:35:16.106Z</time>
      </trkpt>
      <trkpt lat="66.56108" lon="21.0089">
        <ele>322.532063</ele>
        <time>2020-09-21T13:36:11.149Z</time>
      </trkpt>
      <trkpt lat="66.55932" lon="21.00623">
        <ele>334.549306</ele>
        <time>2020-09-21T13:37:34.129Z</time>
      </trkpt>
      <trkpt lat="66.55752" lon="21.004">
        <ele>341.601862</ele>
        <time>2020-09-21T13:39:07.145Z</time>
      </trkpt>
      <trkpt lat="66.55537" lon="21.00288">
        <ele>335.588193</ele>
        <time>2020-09-21T13:39:53.118Z</time>
      </trkpt>
      <trkpt lat="66.55334" lon="21.00229">
        <ele>333.333426</ele>
        <time>2020-09-21T13:40:37.149Z</time>
      </trkpt>
      <trkpt lat="66.55134" lon="21.00175">
        <ele>337.121988</ele>
        <time>2020-09-21T13:41:40.145Z</time>
      </trkpt>
      <trkpt lat="66.54928" lon="21.0002">
        <ele>336.725507</ele>
        <time>2020-09-21T13:45:55.114Z</time>
      </trkpt>
      <trkpt lat="66.54824" lon="20.99565">
        <ele>331.2608</ele>
        <time>2020-09-21T13:46:48.124Z</time>
      </trkpt>
      <trkpt lat="66.54724" lon="20.99044">
        <ele>322.983474</ele>
        <time>2020-09-21T13:47:42.115Z</time>
      </trkpt>
      <trkpt lat="66.54514" lon="20.98611">
        <ele>305.10677</ele>
        <time>2020-09-21T13:48:22.123Z</time>
      </trkpt>
      <trkpt lat="66.54305" lon="20.98326">
        <ele>300.601466</ele>
        <time>2020-09-21T13:49:11.109Z</time>
      </trkpt>
      <trkpt lat="66.5409" lon="20.98316">
        <ele>305.750999</ele>
        <time>2020-09-21T13:50:14.136Z</time>
      </trkpt>
      <trkpt lat="66.53897" lon="20.98211">
        <ele>302.471128</ele>
        <time>2020-09-21T13:50:57.109Z</time>
      </trkpt>
      <trkpt lat="66.53736" lon="20.97879">
        <ele>301.053823</ele>
        <time>2020-09-21T13:51:38.113Z</time>
      </trkpt>
      <trkpt lat="66.53518" lon="20.978">
        <ele>300.479831</ele>
        <time>2020-09-21T13:52:27.115Z</time>
      </trkpt>
      <trkpt lat="66.53295" lon="20.97706">
        <ele>298.222297</ele>
        <time>2020-09-21T13:53:19.170Z</time>
      </trkpt>
      <trkpt lat="66.53114" lon="20.97372">
        <ele>305.061226</ele>
        <time>2020-09-21T13:54:19.134Z</time>
      </trkpt>
      <trkpt lat="66.52982" lon="20.96911">
        <ele>305.237637</ele>
        <time>2020-09-21T13:55:14.114Z</time>
      </trkpt>
      <trkpt lat="66.52853" lon="20.96473">
        <ele>302.105695</ele>
        <time>2020-09-21T13:55:58.126Z</time>
      </trkpt>
      <trkpt lat="66.52745" lon="20.96026">
        <ele>305.329783</ele>
        <time>2020-09-21T13:57:11.127Z</time>
      </trkpt>
      <trkpt lat="66.52715" lon="20.95519">
        <ele>305.200351</ele>
        <time>2020-09-21T13:58:14.151Z</time>
      </trkpt>
      <trkpt lat="66.52555" lon="20.95159">
        <ele>296.558107</ele>
        <time>2020-09-21T13:59:04.105Z</time>
      </trkpt>
      <trkpt lat="66.52376" lon="20.94825">
        <ele>291.492854</ele>
        <time>2020-09-21T13:59:44.148Z</time>
      </trkpt>
      <trkpt lat="66.52191" lon="20.94476">
        <ele>291.089339</ele>
        <time>2020-09-21T14:00:35.130Z</time>
      </trkpt>
      <trkpt lat="66.52014" lon="20.94129">
        <ele>287.069017</ele>
        <time>2020-09-21T14:01:25.111Z</time>
      </trkpt>
      <trkpt lat="66.51878" lon="20.93737">
        <ele>285.395986</ele>
        <time>2020-09-21T14:02:08.117Z</time>
      </trkpt>
      <trkpt lat="66.51814" lon="20.93235">
        <ele>284.795924</ele>
        <time>2020-09-21T14:03:04.134Z</time>
      </trkpt>
      <trkpt lat="66.51679" lon="20.92795">
        <ele>284.171782</ele>
        <time>2020-09-21T14:03:57.150Z</time>
      </trkpt>
      <trkpt lat="66.51631" lon="20.92275">
        <ele>285.179117</ele>
        <time>2020-09-21T14:04:46.120Z</time>
      </trkpt>
      <trkpt lat="66.51596" lon="20.91744">
        <ele>284.867029</ele>
        <time>2020-09-21T14:05:36.158Z</time>
      </trkpt>
      <trkpt lat="66.51562" lon="20.91203">
        <ele>286.79738</ele>
        <time>2020-09-21T14:06:45.104Z</time>
      </trkpt>
      <trkpt lat="66.51527" lon="20.90657">
        <ele>285.172234</ele>
        <time>2020-09-21T14:07:45.125Z</time>
      </trkpt>
      <trkpt lat="66.51488" lon="20.90155">
        <ele>293.173486</ele>
        <time>2020-09-21T14:09:08.108Z</time>
      </trkpt>
      <trkpt lat="66.51407" lon="20.89693">
        <ele>301.948078</ele>
        <time>2020-09-21T14:10:56.114Z</time>
      </trkpt>
      <trkpt lat="66.51284" lon="20.8923">
        <ele>302.182157</ele>
        <time>2020-09-21T14:12:04.116Z</time>
      </trkpt>
      <trkpt lat="66.51165" lon="20.88793">
        <ele>297.227451</ele>
        <time>2020-09-21T14:13:06.137Z</time>
      </trkpt>
      <trkpt lat="66.50967" lon="20.88402">
        <ele>283.560419</ele>
        <time>2020-09-21T14:13:50.123Z</time>
      </trkpt>
      <trkpt lat="66.50769" lon="20.88094">
        <ele>275.780952</ele>
        <time>2020-09-21T14:14:30.114Z</time>
      </trkpt>
      <trkpt lat="66.50556" lon="20.8781">
        <ele>271.384391</ele>
        <time>2020-09-21T14:15:11.156Z</time>
      </trkpt>
      <trkpt lat="66.50322" lon="20.87599">
        <ele>267.849175</ele>
        <time>2020-09-21T14:15:51.121Z</time>
      </trkpt>
      <trkpt lat="66.455" lon="20.65661">
        <ele>120.983987</ele>
        <time>2020-09-21T15:28:33.158Z</time>
      </trkpt>
      <trkpt lat="66.45264" lon="20.65679">
        <ele>110.029784</ele>
        <time>2020-09-21T15:28:59.153Z</time>
      </trkpt>
      <trkpt lat="66.45061" lon="20.65482">
        <ele>104.753157</ele>
        <time>2020-09-21T15:29:35.170Z</time>
      </trkpt>
      <trkpt lat="66.44873" lon="20.65288">
        <ele>111.610458</ele>
        <time>2020-09-21T15:30:44.129Z</time>
      </trkpt>
      <trkpt lat="66.44662" lon="20.65218">
        <ele>115.240261</ele>
        <time>2020-09-21T15:31:33.126Z</time>
      </trkpt>
      <trkpt lat="66.44459" lon="20.64997">
        <ele>120.111163</ele>
        <time>2020-09-21T15:32:24.127Z</time>
      </trkpt>
      <trkpt lat="66.44308" lon="20.64634">
        <ele>121.209074</ele>
        <time>2020-09-21T15:33:11.131Z</time>
      </trkpt>
      <trkpt lat="66.44182" lon="20.64133">
        <ele>119.083075</ele>
        <time>2020-09-21T15:34:08.147Z</time>
      </trkpt>
      <trkpt lat="66.44082" lon="20.63673">
        <ele>132.478048</ele>
        <time>2020-09-21T15:35:28.129Z</time>
      </trkpt>
      <trkpt lat="66.43999" lon="20.63231">
        <ele>147.377752</ele>
        <time>2020-09-21T15:37:10.151Z</time>
      </trkpt>
      <trkpt lat="66.43915" lon="20.62779">
        <ele>151.018875</ele>
        <time>2020-09-21T15:38:42.143Z</time>
      </trkpt>
      <trkpt lat="66.43839" lon="20.62292">
        <ele>151.153506</ele>
        <time>2020-09-21T15:39:48.152Z</time>
      </trkpt>
      <trkpt lat="66.43783" lon="20.61803">
        <ele>158.915263</ele>
        <time>2020-09-21T15:40:48.144Z</time>
      </trkpt>
      <trkpt lat="66.4369" lon="20.61359">
        <ele>172.0254</ele>
        <time>2020-09-21T15:41:57.129Z</time>
      </trkpt>
      <trkpt lat="66.43528" lon="20.61054">
        <ele>155.079147</ele>
        <time>2020-09-21T15:42:57.191Z</time>
      </trkpt>
      <trkpt lat="66.43358" lon="20.60811">
        <ele>155.153957</ele>
        <time>2020-09-21T15:44:00.134Z</time>
      </trkpt>
      <trkpt lat="66.43185" lon="20.60529">
        <ele>158.681913</ele>
        <time>2020-09-21T15:45:01.152Z</time>
      </trkpt>
      <trkpt lat="66.43089" lon="20.60367">
        <ele>159.135676</ele>
        <time>2020-09-21T16:01:19.140Z</time>
      </trkpt>
      <trkpt lat="66.43122" lon="20.59937">
        <ele>156.481889</ele>
        <time>2020-09-21T16:10:07.149Z</time>
      </trkpt>
      <trkpt lat="66.4313" lon="20.59376">
        <ele>151.001313</ele>
        <time>2020-09-21T16:11:06.143Z</time>
      </trkpt>
    </trkseg>
  </trk>
</gpx>